Time;durP1;ratioP1;P1;durP2;ratioP2;P2;SDS_P1;SDS_P2;PMS_P1;PMS_P2;Temp;Humidity;BMP_temperature;BMP_pressure;BME280_temperature;BME280_humidity;BME280_pressure;Samples;Min_cycle;Max_cycle;Signal;HPM_P1;HPM_P2
2021/04/28 06:14:02;;;;;;;18.40;9.50;;;10.90;95.60;;;;;;3622102;39;805572;-89
2021/04/28 06:16:32;;;;;;;15.90;9.25;;;11.10;96.00;;;;;;3626181;39;20043;-89
2021/04/28 06:18:58;;;;;;;13.98;6.10;;;11.10;94.90;;;;;;3630938;39;20047;-88
2021/04/28 06:21:24;;;;;;;9.45;4.95;;;10.90;95.40;;;;;;3624178;39;20051;-89
2021/04/28 06:23:49;;;;;;;20.17;9.23;;;10.80;94.40;;;;;;3634141;39;20412;-90
2021/04/28 06:26:16;;;;;;;18.70;10.82;;;11.20;95.50;;;;;;3616108;39;20058;-90
2021/04/28 06:28:45;;;;;;;11.73;7.85;;;11.30;95.40;;;;;;3628274;39;20123;-87
2021/04/28 06:31:11;;;;;;;11.13;4.95;;;11.60;94.60;;;;;;3620169;39;20281;-89
2021/04/28 06:33:37;;;;;;;18.27;8.55;;;11.90;92.80;;;;;;3630072;39;20058;-89
2021/04/28 06:36:03;;;;;;;16.10;8.40;;;12.30;93.40;;;;;;3624674;39;20050;-90
2021/04/28 06:38:29;;;;;;;10.23;6.57;;;12.00;93.80;;;;;;3624129;39;20164;-88
2021/04/28 06:40:55;;;;;;;10.48;6.65;;;12.10;93.80;;;;;;3626527;39;20050;-89
2021/04/28 06:43:21;;;;;;;9.63;7.38;;;12.40;93.50;;;;;;3628799;39;20147;-90
2021/04/28 06:45:46;;;;;;;8.75;4.45;;;12.00;94.20;;;;;;3634530;39;20043;-90
2021/04/28 06:48:12;;;;;;;8.38;6.32;;;12.10;93.10;;;;;;3623807;39;20046;-92
2021/04/28 06:50:38;;;;;;;11.98;6.65;;;12.10;93.20;;;;;;3630429;39;20043;-92
2021/04/28 06:53:04;;;;;;;4.95;3.85;;;11.90;96.20;;;;;;3642896;39;20062;-91
2021/04/28 06:55:30;;;;;;;7.45;5.65;;;12.40;93.10;;;;;;3626049;39;20039;-92
2021/04/28 06:57:56;;;;;;;8.38;4.20;;;12.00;95.60;;;;;;3617048;39;20389;-89
2021/04/28 07:00:24;;;;;;;10.93;5.70;;;12.10;94.10;;;;;;3614968;39;20145;-86
2021/04/28 07:02:50;;;;;;;7.68;5.45;;;12.10;94.50;;;;;;3624334;39;20054;-84
2021/04/28 07:05:16;;;;;;;10.93;7.47;;;12.20;94.90;;;;;;3624319;39;20058;-84
2021/04/28 07:07:42;;;;;;;10.75;6.45;;;12.70;96.00;;;;;;3633260;39;20046;-86
2021/04/28 07:10:08;;;;;;;7.13;4.70;;;12.80;95.60;;;;;;3633922;39;20316;-86
2021/04/28 07:12:34;;;;;;;8.52;4.55;;;12.80;95.40;;;;;;3632605;39;20075;-85
2021/04/28 07:15:00;;;;;;;9.00;5.00;;;12.90;93.20;;;;;;3626971;39;20125;-88
2021/04/28 07:17:26;;;;;;;7.15;3.83;;;13.30;96.00;;;;;;3633388;39;20057;-88
2021/04/28 07:19:53;;;;;;;7.32;4.53;;;12.70;93.20;;;;;;3624679;39;20057;-86
2021/04/28 07:22:19;;;;;;;6.38;4.40;;;11.70;95.20;;;;;;3615906;39;20304;-87
2021/04/28 07:24:45;;;;;;;8.52;4.55;;;12.00;95.10;;;;;;3609924;39;20320;-86
2021/04/28 07:27:10;;;;;;;11.60;5.05;;;12.50;98.00;;;;;;3614153;39;20059;-85
2021/04/28 07:29:36;;;;;;;7.55;5.15;;;13.00;94.40;;;;;;3619157;39;20343;-86
2021/04/28 07:32:02;;;;;;;5.82;3.78;;;12.60;95.40;;;;;;3625333;39;20051;-86
2021/04/28 07:34:29;;;;;;;6.88;4.47;;;13.20;95.40;;;;;;3630380;39;20323;-87
2021/04/28 07:36:55;;;;;;;9.07;3.75;;;12.80;96.90;;;;;;3623395;39;20055;-85
2021/04/28 07:39:21;;;;;;;6.93;4.80;;;12.20;93.30;;;;;;3616983;39;20501;-91
2021/04/28 07:41:47;;;;;;;12.95;3.70;;;12.90;96.10;;;;;;3611984;39;20104;-87
2021/04/28 07:44:14;;;;;;;14.45;4.22;;;12.30;93.50;;;;;;3616237;39;20111;-88
2021/04/28 07:46:40;;;;;;;9.15;3.80;;;11.80;94.30;;;;;;3622853;39;20046;-87
2021/04/28 07:49:06;;;;;;;8.10;4.13;;;12.80;96.10;;;;;;3612202;39;20043;-90
2021/04/28 07:51:33;;;;;;;6.32;4.07;;;12.00;93.80;;;;;;3618619;39;20071;-89
2021/04/28 07:53:59;;;;;;;8.80;5.20;;;12.50;96.50;;;;;;3620228;39;20382;-89
2021/04/28 07:56:26;;;;;;;8.98;5.60;;;13.60;94.70;;;;;;3616237;39;21056;-87
2021/04/28 07:58:52;;;;;;;7.55;4.15;;;13.60;94.60;;;;;;3621072;39;20054;-89
2021/04/28 08:01:18;;;;;;;7.32;5.03;;;13.70;91.90;;;;;;3615199;39;20087;-87
2021/04/28 08:03:44;;;;;;;7.20;4.50;;;14.10;93.80;;;;;;3624619;39;20051;-87
2021/04/28 08:06:10;;;;;;;6.80;3.85;;;13.90;91.90;;;;;;3626374;39;20054;-89
2021/04/28 08:08:36;;;;;;;10.15;4.40;;;13.60;90.90;;;;;;3620195;39;20051;-87
2021/04/28 08:11:02;;;;;;;8.07;4.78;;;13.90;92.80;;;;;;3626235;39;20316;-86
2021/04/28 08:13:27;;;;;;;9.38;5.28;;;14.70;91.50;;;;;;3617163;39;20079;-87
2021/04/28 08:15:54;;;;;;;8.82;4.60;;;14.90;91.20;;;;;;3612115;39;20063;-89
2021/04/28 08:18:21;;;;;;;10.52;6.65;;;15.00;89.40;;;;;;3628116;39;20412;-90
2021/04/28 08:20:47;;;;;;;7.47;4.70;;;15.20;91.00;;;;;;3615661;39;20485;-87
2021/04/28 08:23:13;;;;;;;10.43;5.40;;;15.10;85.90;;;;;;3623788;39;20046;-86
2021/04/28 08:25:39;;;;;;;15.38;5.15;;;15.00;86.90;;;;;;3620342;39;20182;-86
2021/04/28 08:28:05;;;;;;;15.27;5.20;;;15.50;84.70;;;;;;3618990;39;20727;-88
2021/04/28 08:30:31;;;;;;;10.35;6.10;;;15.40;82.10;;;;;;3618303;39;20112;-86
2021/04/28 08:32:57;;;;;;;15.70;7.40;;;15.70;78.70;;;;;;3623219;39;20135;-88
2021/04/28 08:35:23;;;;;;;17.98;8.07;;;15.90;79.30;;;;;;3614828;39;20039;-88
2021/04/28 08:37:49;;;;;;;10.05;5.35;;;15.60;76.80;;;;;;3620404;39;20472;-88
2021/04/28 08:40:16;;;;;;;15.40;8.27;;;15.50;73.40;;;;;;3615770;39;20047;-86
2021/04/28 08:42:42;;;;;;;6.75;4.20;;;16.20;72.40;;;;;;3609372;39;20115;-85
2021/04/28 08:45:10;;;;;;;4.63;4.03;;;16.30;70.40;;;;;;3622823;39;20052;-88
2021/04/28 08:47:36;;;;;;;9.07;5.40;;;16.40;67.20;;;;;;3621929;39;20039;-86
2021/04/28 08:50:02;;;;;;;7.72;3.83;;;17.20;65.20;;;;;;3619086;39;20051;-85
2021/04/28 08:52:28;;;;;;;12.52;4.68;;;17.10;63.20;;;;;;3619133;39;20137;-87
2021/04/28 08:54:54;;;;;;;10.05;5.65;;;17.80;58.70;;;;;;3622078;39;20070;-87
2021/04/28 08:57:20;;;;;;;8.43;4.18;;;17.90;58.90;;;;;;3625325;39;20050;-88
2021/04/28 08:59:46;;;;;;;6.90;3.80;;;18.30;57.60;;;;;;3626777;39;20057;-87
2021/04/28 09:02:28;;;;;;;5.28;3.65;;;18.10;52.90;;;;;;3616311;39;20379;-84
2021/04/28 09:05:11;;;;;;;6.30;4.40;;;18.00;52.80;;;;;;3618777;39;20316;-87
2021/04/28 09:07:42;;;;;;;4.30;3.28;;;18.20;50.90;;;;;;3624316;39;20283;-86
2021/04/28 09:10:09;;;;;;;7.30;4.43;;;18.50;50.60;;;;;;3611973;39;20055;-86
2021/04/28 09:12:36;;;;;;;8.05;3.72;;;18.30;49.70;;;;;;3624535;39;20051;-85
2021/04/28 09:15:05;;;;;;;7.10;3.78;;;18.60;45.50;;;;;;3621119;39;20054;-87
2021/04/28 09:17:30;;;;;;;4.88;3.50;;;18.70;44.50;;;;;;3618469;39;20062;-86
2021/04/28 09:20:24;;;;;;;5.75;3.65;;;19.00;44.40;;;;;;3611941;39;20075;-86
2021/04/28 09:23:15;;;;;;;5.72;3.95;;;19.30;45.50;;;;;;3621910;39;20042;-87
2021/04/28 09:25:41;;;;;;;4.75;3.50;;;20.10;43.50;;;;;;3619144;39;20046;-84
2021/04/28 09:28:34;;;;;;;9.18;3.63;;;20.40;43.00;;;;;;3617142;39;20054;-86
2021/04/28 09:31:06;;;;;;;5.85;3.70;;;19.20;41.40;;;;;;3618099;39;20046;-87
2021/04/28 09:33:41;;;;;;;8.00;3.80;;;19.10;39.10;;;;;;3616737;39;20047;-84
2021/04/28 09:36:12;;;;;;;5.72;3.10;;;19.70;40.60;;;;;;3623373;39;20055;-84
2021/04/28 09:38:50;;;;;;;5.45;3.75;;;19.50;40.10;;;;;;3625719;39;20051;-85
2021/04/28 09:41:51;;;;;;;9.07;3.00;;;19.50;39.60;;;;;;3619287;39;20110;-86
2021/04/28 09:44:20;;;;;;;6.28;3.22;;;19.70;40.00;;;;;;3596165;39;20123;-86
2021/04/28 09:46:58;;;;;;;4.35;3.40;;;19.50;39.70;;;;;;3619657;39;20055;-87
2021/04/28 09:49:25;;;;;;;5.75;3.50;;;19.50;40.50;;;;;;3614571;39;20054;-83
2021/04/28 09:52:02;;;;;;;9.05;3.30;;;19.10;39.20;;;;;;3626313;39;20077;-84
2021/04/28 09:54:32;;;;;;;6.80;3.83;;;19.00;39.10;;;;;;3617560;39;20043;-86
2021/04/28 09:56:58;;;;;;;4.72;3.42;;;19.30;39.10;;;;;;3616329;39;20079;-88
2021/04/28 10:00:00;;;;;;;5.22;3.33;;;19.10;40.80;;;;;;3615202;39;20054;-89
2021/04/28 10:02:28;;;;;;;5.20;3.65;;;19.00;40.00;;;;;;3571918;40;20068;-84
2021/04/28 10:05:15;;;;;;;5.55;3.67;;;19.10;40.00;;;;;;3613787;39;20122;-84
2021/04/28 10:07:41;;;;;;;4.32;3.83;;;18.40;43.20;;;;;;3622693;39;20058;-84
2021/04/28 10:10:08;;;;;;;6.30;3.63;;;19.00;42.40;;;;;;3609001;39;20059;-86
2021/04/28 10:12:33;;;;;;;11.43;4.25;;;18.80;45.10;;;;;;3619741;39;20035;-85
2021/04/28 10:14:59;;;;;;;8.25;4.57;;;19.10;49.60;;;;;;3622913;39;20293;-84
2021/04/28 10:17:26;;;;;;;4.70;4.18;;;17.80;51.30;;;;;;3624171;39;20049;-85
2021/04/28 10:19:53;;;;;;;5.40;3.95;;;17.60;52.00;;;;;;3609901;39;20043;-86
2021/04/28 10:22:20;;;;;;;5.90;4.05;;;18.50;52.20;;;;;;3617839;39;20059;-87
2021/04/28 10:24:50;;;;;;;7.32;4.10;;;18.20;51.40;;;;;;3620986;39;20047;-86
2021/04/28 10:27:18;;;;;;;5.50;3.92;;;17.70;52.50;;;;;;3625200;39;20079;-87
2021/04/28 10:29:48;;;;;;;5.72;4.10;;;19.00;51.80;;;;;;3620132;39;20071;-85
2021/04/28 10:32:16;;;;;;;8.98;4.13;;;17.70;52.60;;;;;;3615884;39;20047;-87
2021/04/28 10:34:54;;;;;;;6.72;3.95;;;18.40;51.80;;;;;;3621142;39;20127;-88
2021/04/28 10:37:20;;;;;;;4.93;3.95;;;18.30;51.00;;;;;;3618327;39;20046;-86
2021/04/28 10:39:48;;;;;;;5.53;4.03;;;19.00;49.60;;;;;;3624848;39;20055;-87
2021/04/28 10:42:27;;;;;;;5.43;4.28;;;18.50;50.30;;;;;;3615276;39;20050;-85
2021/04/28 10:44:53;;;;;;;7.03;4.28;;;18.30;50.30;;;;;;3606160;39;20051;-85
2021/04/28 10:47:21;;;;;;;5.63;3.80;;;19.80;50.10;;;;;;3617684;39;20062;-88
2021/04/28 10:50:12;;;;;;;7.55;4.47;;;19.70;51.00;;;;;;3623364;39;20060;-87
2021/04/28 10:52:48;;;;;;;5.13;4.55;;;18.90;49.90;;;;;;3612565;39;20043;-84
2021/04/28 10:55:39;;;;;;;7.50;4.20;;;19.40;50.10;;;;;;3615669;39;20045;-87
2021/04/28 10:58:27;;;;;;;6.75;3.90;;;19.00;51.30;;;;;;3618868;39;20043;-85
2021/04/28 11:01:02;;;;;;;6.60;4.00;;;17.70;51.70;;;;;;3622285;39;20047;-86
2021/04/28 11:03:28;;;;;;;10.48;4.05;;;18.50;53.70;;;;;;3623837;39;20424;-86
2021/04/28 11:05:54;;;;;;;7.38;4.93;;;18.00;57.20;;;;;;3625788;39;20049;-84
2021/04/28 11:08:29;;;;;;;5.95;4.95;;;18.80;54.60;;;;;;3623985;39;20376;-86
2021/04/28 11:10:55;;;;;;;7.38;3.78;;;18.50;55.80;;;;;;3626913;39;20050;-86
2021/04/28 11:13:21;;;;;;;5.88;4.25;;;19.50;55.10;;;;;;3620473;39;20042;-86
2021/04/28 11:15:56;;;;;;;6.18;4.03;;;19.50;55.40;;;;;;3616471;39;20059;-85
2021/04/28 11:18:35;;;;;;;6.60;5.03;;;18.70;55.80;;;;;;3625730;39;20047;-87
2021/04/28 11:21:26;;;;;;;5.15;4.22;;;18.60;55.60;;;;;;3609136;39;20058;-86
2021/04/28 11:24:10;;;;;;;5.57;4.80;;;18.90;57.10;;;;;;3618514;39;20112;-85
2021/04/28 11:26:38;;;;;;;11.35;5.90;;;18.20;58.00;;;;;;3617770;39;20561;-85
2021/04/28 11:29:06;;;;;;;10.32;5.50;;;19.40;58.30;;;;;;3620952;39;20078;-88
2021/04/28 11:31:42;;;;;;;8.25;4.63;;;19.60;59.10;;;;;;3630203;39;20104;-83
2021/04/28 11:34:33;;;;;;;6.05;4.32;;;19.90;57.70;;;;;;3611324;39;20032;-88
2021/04/28 11:37:03;;;;;;;11.35;7.03;;;19.40;56.00;;;;;;3620491;39;20050;-85
2021/04/28 11:39:41;;;;;;;13.43;6.43;;;19.10;57.10;;;;;;3617754;39;20389;-86
2021/04/28 11:42:18;;;;;;;9.57;4.38;;;18.50;56.70;;;;;;3622756;39;20047;-87
2021/04/28 11:44:51;;;;;;;7.28;5.25;;;17.90;58.70;;;;;;3626079;39;20043;-88
2021/04/28 11:47:19;;;;;;;14.75;5.78;;;18.00;59.80;;;;;;3624604;39;20042;-86
2021/04/28 11:49:48;;;;;;;11.18;5.10;;;18.60;60.20;;;;;;3617508;39;20127;-86
2021/04/28 11:52:15;;;;;;;7.47;5.30;;;19.10;60.30;;;;;;3619421;39;20531;-85
2021/04/28 11:54:41;;;;;;;8.18;5.45;;;19.60;58.70;;;;;;3621303;39;20042;-85
2021/04/28 11:57:08;;;;;;;8.95;4.60;;;18.10;60.00;;;;;;3615918;39;20382;-87
2021/04/28 11:59:36;;;;;;;8.95;5.00;;;18.90;62.60;;;;;;3623514;39;20058;-84
2021/04/28 12:02:05;;;;;;;10.57;5.20;;;19.50;60.80;;;;;;3626204;39;20246;-83
2021/04/28 12:04:37;;;;;;;6.05;4.82;;;19.00;60.00;;;;;;3617134;39;20132;-83
2021/04/28 12:07:04;;;;;;;;;;;19.50;58.00;;;;;;3617692;39;20055;-84
2021/04/28 12:09:41;;;;;;;9.68;5.80;;;19.40;58.90;;;;;;3618691;39;20413;-82
2021/04/28 12:12:16;;;;;;;8.82;6.00;;;18.50;58.20;;;;;;3607093;39;20051;-85
2021/04/28 12:14:43;;;;;;;7.05;5.88;;;18.10;58.80;;;;;;3608404;39;20047;-84
2021/04/28 12:17:10;;;;;;;10.23;7.60;;;18.30;62.00;;;;;;3619943;39;20049;-86
2021/04/28 12:19:38;;;;;;;8.90;6.38;;;19.10;60.70;;;;;;3616848;39;20062;-85
2021/04/28 12:22:09;;;;;;;22.05;11.52;;;19.10;58.70;;;;;;3625081;39;20047;-85
2021/04/28 12:24:41;;;;;;;10.68;6.53;;;19.00;57.60;;;;;;3623653;39;20079;-86
2021/04/28 12:27:12;;;;;;;7.95;7.03;;;18.20;57.90;;;;;;3617060;39;20063;-85
2021/04/28 12:29:49;;;;;;;10.95;6.78;;;17.60;58.00;;;;;;3617980;39;20480;-85
2021/04/28 12:32:17;;;;;;;12.23;7.45;;;17.20;59.70;;;;;;3616807;39;20054;-84
2021/04/28 12:34:45;;;;;;;8.60;7.18;;;17.80;58.70;;;;;;3616902;39;20039;-84
2021/04/28 12:37:23;;;;;;;9.35;7.25;;;17.20;58.30;;;;;;3614364;39;20094;-84
2021/04/28 12:39:57;;;;;;;8.68;6.40;;;17.30;60.30;;;;;;3617478;39;20405;-83
2021/04/28 12:42:32;;;;;;;13.25;7.45;;;19.00;58.60;;;;;;3622751;39;20057;-83
2021/04/28 12:45:00;;;;;;;8.50;7.03;;;18.00;55.80;;;;;;3617098;39;20160;-82
2021/04/28 12:47:29;;;;;;;8.40;7.30;;;17.90;55.60;;;;;;3626841;39;20046;-81
2021/04/28 12:50:03;;;;;;;11.50;7.65;;;18.60;55.60;;;;;;3625249;39;20058;-83
2021/04/28 12:52:38;;;;;;;10.45;7.47;;;18.30;54.50;;;;;;3627556;39;20401;-83
2021/04/28 12:55:23;;;;;;;15.95;6.53;;;19.00;54.90;;;;;;3620874;39;20050;-84
2021/04/28 12:57:53;;;;;;;10.40;6.10;;;19.40;52.20;;;;;;3617278;39;20047;-85
2021/04/28 13:00:20;;;;;;;9.05;6.07;;;18.60;55.40;;;;;;3623803;39;20050;-84
2021/04/28 13:03:02;;;;;;;7.82;6.85;;;18.70;55.30;;;;;;3618860;39;20043;-83
2021/04/28 13:05:33;;;;;;;9.43;6.15;;;18.60;54.20;;;;;;3626215;39;20313;-84
2021/04/28 13:08:22;;;;;;;7.38;6.00;;;18.90;56.70;;;;;;3624560;39;20043;-84
2021/04/28 13:11:05;;;;;;;18.88;6.80;;;19.10;57.10;;;;;;3617786;39;20059;-82
2021/04/28 13:14:04;;;;;;;8.48;5.65;;;18.60;53.00;;;;;;3622488;39;20067;-84
2021/04/28 13:16:36;;;;;;;8.13;5.50;;;18.70;55.90;;;;;;3593744;39;20401;-83
2021/04/28 13:19:20;;;;;;;13.02;8.10;;;19.30;54.30;;;;;;3616213;39;20155;-83
2021/04/28 13:22:01;;;;;;;9.45;7.00;;;19.00;55.60;;;;;;3616046;39;20055;-84
2021/04/28 13:24:27;;;;;;;10.13;6.68;;;18.60;55.80;;;;;;3617475;39;20393;-83
2021/04/28 13:27:09;;;;;;;9.88;7.22;;;17.90;55.70;;;;;;3616451;39;20059;-83
2021/04/28 13:29:49;;;;;;;10.45;7.03;;;18.50;55.20;;;;;;3617352;39;20099;-82
2021/04/28 13:32:42;;;;;;;11.50;6.53;;;18.30;59.10;;;;;;3617315;39;20047;-81
2021/04/28 13:35:31;;;;;;;10.00;6.75;;;19.20;56.90;;;;;;3621256;39;20055;-84
2021/04/28 13:37:57;;;;;;;8.27;6.07;;;18.30;60.40;;;;;;3617255;39;20051;-84
2021/04/28 13:40:34;;;;;;;12.70;6.63;;;19.00;61.00;;;;;;3617285;39;20061;-83
2021/04/28 13:43:09;;;;;;;8.90;6.38;;;18.90;55.60;;;;;;3598226;39;20123;-84
2021/04/28 13:45:35;;;;;;;13.02;6.90;;;18.40;53.50;;;;;;3621981;39;20046;-83
2021/04/28 13:48:02;;;;;;;10.95;7.38;;;18.70;54.40;;;;;;3617689;39;20051;-83
2021/04/28 13:50:28;;;;;;;12.95;7.60;;;18.30;63.50;;;;;;3626624;39;20057;-82
2021/04/28 13:52:53;;;;;;;12.95;7.15;;;18.00;60.10;;;;;;3626467;39;20050;-82
2021/04/28 13:55:20;;;;;;;8.68;6.28;;;18.50;60.70;;;;;;3619076;39;20078;-83
2021/04/28 13:57:45;;;;;;;10.57;7.30;;;18.80;63.30;;;;;;3614864;39;20329;-83
2021/04/28 14:00:14;;;;;;;10.30;6.65;;;18.90;61.80;;;;;;3626458;39;20046;-83
2021/04/28 14:02:41;;;;;;;12.98;6.80;;;19.00;60.40;;;;;;3622017;39;20324;-82
2021/04/28 14:05:07;;;;;;;12.07;6.10;;;18.90;61.60;;;;;;3615940;39;20212;-82
2021/04/28 14:07:33;;;;;;;9.95;5.97;;;17.80;60.90;;;;;;3616164;39;20046;-84
2021/04/28 14:09:59;;;;;;;11.55;6.00;;;17.40;60.60;;;;;;3619032;39;20316;-85
2021/04/28 14:12:25;;;;;;;12.85;6.90;;;16.90;63.10;;;;;;3617748;39;20363;-83
2021/04/28 14:14:51;;;;;;;11.80;7.00;;;17.10;63.90;;;;;;3616465;39;20143;-83
2021/04/28 14:17:16;;;;;;;6.85;6.18;;;16.60;68.50;;;;;;3616460;39;20134;-83
2021/04/28 14:19:42;;;;;;;12.80;6.65;;;17.70;68.50;;;;;;3616007;39;20051;-84
2021/04/28 14:22:08;;;;;;;10.77;6.35;;;17.80;68.80;;;;;;3616337;39;20123;-83
2021/04/28 14:24:34;;;;;;;13.75;6.75;;;17.00;69.80;;;;;;3606543;39;20341;-82
2021/04/28 14:27:00;;;;;;;11.18;5.95;;;17.70;70.20;;;;;;3616043;39;20060;-82
2021/04/28 14:29:26;;;;;;;8.73;6.05;;;18.10;68.70;;;;;;3616818;39;20131;-83
2021/04/28 14:31:52;;;;;;;9.13;7.15;;;17.30;66.90;;;;;;3606396;39;20046;-83
2021/04/28 14:34:17;;;;;;;10.45;6.70;;;16.90;66.40;;;;;;3616616;39;20059;-83
2021/04/28 14:36:43;;;;;;;10.10;7.38;;;16.40;69.00;;;;;;3617817;39;20095;-82
2021/04/28 14:39:10;;;;;;;9.60;6.30;;;16.40;69.90;;;;;;3617619;39;20051;-84
2021/04/28 14:41:37;;;;;;;13.52;7.25;;;16.60;73.00;;;;;;3618732;39;20072;-84
2021/04/28 14:44:03;;;;;;;12.80;7.43;;;16.00;71.70;;;;;;3627214;39;20055;-82
2021/04/28 14:46:29;;;;;;;13.40;6.53;;;16.60;73.90;;;;;;3627567;39;20056;-83
2021/04/28 14:48:55;;;;;;;12.88;7.38;;;16.50;72.50;;;;;;3618167;39;20051;-83
2021/04/28 14:51:21;;;;;;;10.13;6.85;;;15.40;75.20;;;;;;3623892;39;20046;-82
2021/04/28 14:53:47;;;;;;;12.48;6.78;;;15.70;74.60;;;;;;3622832;39;20039;-83
2021/04/28 14:56:13;;;;;;;15.07;7.35;;;15.30;75.50;;;;;;3627072;39;20073;-83
2021/04/28 14:58:43;;;;;;;8.57;6.05;;;15.80;75.20;;;;;;3619082;39;20058;-84
2021/04/28 15:01:13;;;;;;;12.75;7.28;;;15.80;75.20;;;;;;3617645;39;20043;-83
2021/04/28 15:03:42;;;;;;;8.73;6.57;;;15.20;76.10;;;;;;3625369;39;20053;-85
2021/04/28 15:06:12;;;;;;;13.52;7.07;;;15.90;78.30;;;;;;3621682;39;20061;-84
2021/04/28 15:08:55;;;;;;;12.63;7.25;;;15.90;83.60;;;;;;3622336;39;20312;-83
2021/04/28 15:11:21;;;;;;;11.88;6.45;;;15.70;80.80;;;;;;3621089;39;20091;-84
2021/04/28 15:13:47;;;;;;;7.10;6.38;;;15.60;85.30;;;;;;3610894;39;20367;-84
2021/04/28 15:16:12;;;;;;;9.73;6.70;;;15.60;84.20;;;;;;3621535;39;20054;-87
2021/04/28 15:18:38;;;;;;;8.32;6.13;;;15.60;84.90;;;;;;3624572;39;20087;-84
2021/04/28 15:21:04;;;;;;;7.13;6.22;;;15.90;88.40;;;;;;3615544;39;20413;-84
2021/04/28 15:23:30;;;;;;;12.20;6.68;;;16.00;86.20;;;;;;3614538;39;20046;-84
2021/04/28 15:25:56;;;;;;;8.38;5.75;;;15.80;87.30;;;;;;3625926;39;20493;-83
2021/04/28 15:28:23;;;;;;;10.77;6.18;;;15.50;89.80;;;;;;3625905;39;20403;-83
2021/04/28 15:30:53;;;;;;;10.73;6.43;;;16.00;89.00;;;;;;3623542;39;20047;-84
2021/04/28 15:33:19;;;;;;;12.77;6.75;;;15.60;86.00;;;;;;3623196;39;20051;-82
2021/04/28 15:35:47;;;;;;;7.65;5.47;;;15.20;88.40;;;;;;3623724;39;20039;-82
2021/04/28 15:38:17;;;;;;;14.00;5.75;;;15.00;90.80;;;;;;3619434;39;20039;-85
2021/04/28 15:40:44;;;;;;;13.40;6.15;;;14.80;90.30;;;;;;3620150;39;20086;-83
2021/04/28 15:43:11;;;;;;;6.60;5.40;;;14.50;89.60;;;;;;3624488;39;20054;-85
2021/04/28 15:45:39;;;;;;;11.77;6.15;;;14.40;91.00;;;;;;3619792;39;20050;-83
2021/04/28 15:48:07;;;;;;;10.05;5.60;;;14.10;91.00;;;;;;3618968;39;20055;-83
2021/04/28 15:50:33;;;;;;;8.45;5.72;;;14.10;91.50;;;;;;3623966;39;20051;-82
2021/04/28 15:52:59;;;;;;;12.63;5.65;;;14.40;92.90;;;;;;3626854;39;20435;-83
2021/04/28 15:55:24;;;;;;;12.32;5.72;;;14.10;91.60;;;;;;3625519;39;20073;-83
2021/04/28 15:57:50;;;;;;;6.40;5.43;;;14.30;90.80;;;;;;3619096;39;20092;-80
2021/04/28 16:00:16;;;;;;;9.05;5.85;;;14.20;90.60;;;;;;3617406;39;20425;-80
2021/04/28 16:02:42;;;;;;;8.05;5.20;;;14.50;90.90;;;;;;3618286;39;20442;-83
2021/04/28 16:05:09;;;;;;;11.05;6.32;;;14.70;90.90;;;;;;3617104;39;20051;-82
2021/04/28 16:07:35;;;;;;;10.23;5.80;;;14.00;90.20;;;;;;3625577;39;20143;-81
2021/04/28 16:10:00;;;;;;;11.25;6.45;;;13.80;88.90;;;;;;3627595;39;20401;-82
2021/04/28 16:12:26;;;;;;;8.38;5.70;;;13.90;90.00;;;;;;3619868;39;20058;-83
2021/04/28 16:14:52;;;;;;;9.25;6.22;;;14.20;90.80;;;;;;3608126;39;20075;-82
2021/04/28 16:17:18;;;;;;;13.27;5.53;;;13.90;90.90;;;;;;3623993;39;20053;-83
2021/04/28 16:19:44;;;;;;;10.90;6.63;;;14.20;89.30;;;;;;3617771;39;20090;-84
2021/04/28 16:22:10;;;;;;;7.82;6.45;;;13.90;88.10;;;;;;3621757;39;20042;-84
2021/04/28 16:24:36;;;;;;;9.98;7.35;;;13.70;91.00;;;;;;3617477;39;20051;-84
2021/04/28 16:27:02;;;;;;;11.90;7.45;;;13.50;91.70;;;;;;3620514;39;20067;-89
2021/04/28 16:29:28;;;;;;;11.05;7.15;;;13.40;91.60;;;;;;3619746;39;20059;-88
2021/04/28 16:31:54;;;;;;;11.10;6.80;;;13.90;91.60;;;;;;3621573;39;20333;-88
2021/04/28 16:34:20;;;;;;;7.72;6.88;;;13.40;92.10;;;;;;3620272;39;20485;-88
2021/04/28 16:36:46;;;;;;;19.13;6.97;;;13.70;92.40;;;;;;3621949;39;20071;-90
2021/04/28 16:39:13;;;;;;;10.63;6.85;;;13.80;92.40;;;;;;3623357;39;20058;-88
2021/04/28 16:41:39;;;;;;;8.18;7.07;;;13.60;91.80;;;;;;3621370;39;20401;-89
2021/04/28 16:44:05;;;;;;;12.70;6.85;;;13.70;91.80;;;;;;3627937;39;20054;-90
2021/04/28 16:46:31;;;;;;;10.60;6.90;;;13.40;93.20;;;;;;3612825;39;20046;-88
2021/04/28 16:48:57;;;;;;;11.07;7.57;;;13.60;92.00;;;;;;3631587;39;20404;-88
2021/04/28 16:51:23;;;;;;;9.65;7.47;;;13.40;92.20;;;;;;3626076;39;20039;-88
2021/04/28 16:53:49;;;;;;;11.98;7.55;;;13.00;92.20;;;;;;3627377;39;20597;-89
2021/04/28 16:56:14;;;;;;;9.57;7.38;;;13.10;92.60;;;;;;3627090;39;20057;-88
2021/04/28 16:58:46;;;;;;;10.88;7.45;;;13.10;92.20;;;;;;3623670;39;20042;-89
2021/04/28 17:01:12;;;;;;;15.18;8.50;;;12.80;92.50;;;;;;3622568;39;20122;-90
2021/04/28 17:03:38;;;;;;;17.40;8.20;;;12.80;93.00;;;;;;3621193;39;20051;-89
2021/04/28 17:06:03;;;;;;;11.95;7.07;;;12.70;93.90;;;;;;3615892;39;20058;-91
2021/04/28 17:08:30;;;;;;;9.82;7.97;;;12.70;94.70;;;;;;3630103;39;20313;-88
2021/04/28 17:10:55;;;;;;;15.60;8.30;;;12.50;96.80;;;;;;3624181;39;20055;-90
2021/04/28 17:13:25;;;;;;;12.52;7.78;;;12.40;97.40;;;;;;3627960;39;20124;-88
2021/04/28 17:15:51;;;;;;;10.48;7.53;;;12.50;97.00;;;;;;3628796;39;20050;-90
2021/04/28 17:18:17;;;;;;;11.70;8.18;;;12.50;96.30;;;;;;3630695;39;20053;-88
2021/04/28 17:20:43;;;;;;;11.15;8.20;;;12.30;96.20;;;;;;3611300;39;20031;-89
2021/04/28 17:23:08;;;;;;;12.65;7.90;;;12.40;96.20;;;;;;3626527;39;20386;-90
2021/04/28 17:25:34;;;;;;;9.90;8.00;;;12.50;95.90;;;;;;3619361;39;20304;-90
2021/04/28 17:28:00;;;;;;;9.23;6.97;;;12.20;96.40;;;;;;3612497;39;20039;-89
2021/04/28 17:30:27;;;;;;;9.52;7.55;;;12.30;96.80;;;;;;3629363;39;20075;-89
2021/04/28 17:32:55;;;;;;;8.65;7.10;;;12.40;96.80;;;;;;3613416;39;20058;-89
2021/04/28 17:35:21;;;;;;;10.75;7.40;;;12.30;97.40;;;;;;3626110;39;20131;-87
2021/04/28 17:37:47;;;;;;;10.65;7.45;;;12.50;97.40;;;;;;3622488;39;20051;-88
2021/04/28 17:40:14;;;;;;;11.70;7.57;;;12.60;97.50;;;;;;3619526;39;20046;-87
2021/04/28 17:42:39;;;;;;;12.82;7.28;;;12.40;96.90;;;;;;3627859;39;20054;-89
2021/04/28 17:45:08;;;;;;;10.82;7.35;;;12.30;96.90;;;;;;3629635;39;20049;-87
2021/04/28 17:47:34;;;;;;;9.57;6.70;;;12.60;96.80;;;;;;3625251;39;20066;-89
2021/04/28 17:50:00;;;;;;;17.85;8.02;;;12.40;96.60;;;;;;3617212;39;20059;-89
2021/04/28 17:52:26;;;;;;;10.15;7.68;;;12.10;96.40;;;;;;3621666;39;20077;-90
2021/04/28 17:54:51;;;;;;;10.05;7.45;;;11.80;96.80;;;;;;3608328;39;20059;-90
2021/04/28 17:57:17;;;;;;;13.10;8.40;;;12.30;96.90;;;;;;3615144;39;20051;-89
2021/04/28 17:59:45;;;;;;;15.98;8.18;;;12.30;96.50;;;;;;3618650;39;20046;-90
2021/04/28 18:02:11;;;;;;;14.02;8.07;;;12.00;97.10;;;;;;3619648;39;20047;-90
2021/04/28 18:04:37;;;;;;;13.13;8.02;;;12.40;96.50;;;;;;3617505;39;20336;-89
2021/04/28 18:07:04;;;;;;;14.52;8.32;;;12.20;96.80;;;;;;3616972;39;20046;-91
2021/04/28 18:09:30;;;;;;;13.25;8.15;;;12.10;96.90;;;;;;3623190;39;20051;-89
2021/04/28 18:11:56;;;;;;;13.98;8.07;;;11.90;97.00;;;;;;3632707;39;20054;-91
2021/04/28 18:14:21;;;;;;;11.32;7.82;;;11.80;97.20;;;;;;3631718;39;20117;-90
2021/04/28 18:16:47;;;;;;;10.27;7.45;;;12.20;97.20;;;;;;3618049;39;20396;-89
2021/04/28 18:19:15;;;;;;;9.48;7.45;;;12.50;96.40;;;;;;3618885;39;20058;-89
2021/04/28 18:21:43;;;;;;;14.40;7.78;;;12.20;96.50;;;;;;3618714;39;20042;-89
2021/04/28 18:24:09;;;;;;;11.10;8.02;;;11.80;97.00;;;;;;3617585;39;20493;-90
2021/04/28 18:26:35;;;;;;;13.57;8.18;;;12.00;97.10;;;;;;3618640;39;20062;-89
2021/04/28 18:29:03;;;;;;;11.65;8.52;;;11.80;97.10;;;;;;3627555;39;20058;-89
2021/04/28 18:31:29;;;;;;;11.70;8.07;;;11.70;97.40;;;;;;3619639;39;20061;-89
2021/04/28 18:33:55;;;;;;;13.07;8.00;;;11.60;97.60;;;;;;3611714;39;20051;-88
2021/04/28 18:36:20;;;;;;;11.98;8.60;;;11.50;97.80;;;;;;3612638;39;20062;-90
2021/04/28 18:38:47;;;;;;;13.05;8.15;;;11.50;98.30;;;;;;3609998;39;20532;-90
2021/04/28 18:41:12;;;;;;;12.77;8.43;;;11.50;98.80;;;;;;3608768;39;20429;-90
2021/04/28 18:43:38;;;;;;;13.35;8.45;;;11.40;99.10;;;;;;3620784;39;20050;-89
2021/04/28 18:46:04;;;;;;;14.50;7.68;;;11.30;99.30;;;;;;3620376;39;20047;-91
2021/04/28 18:48:30;;;;;;;14.15;8.68;;;11.30;99.30;;;;;;3620177;39;20051;-90
2021/04/28 18:50:56;;;;;;;12.95;7.22;;;11.30;99.40;;;;;;3622293;39;20388;-90
2021/04/28 18:53:22;;;;;;;11.00;8.65;;;11.10;99.40;;;;;;3618661;39;20064;-90
2021/04/28 18:55:47;;;;;;;11.18;8.50;;;11.00;99.90;;;;;;3626587;39;20183;-90
2021/04/28 18:58:13;;;;;;;13.45;8.50;;;10.70;99.90;;;;;;3609132;39;20386;-89
2021/04/28 19:00:39;;;;;;;12.35;8.43;;;10.70;99.90;;;;;;3619010;39;20050;-88
2021/04/28 19:03:05;;;;;;;11.50;8.43;;;10.60;99.90;;;;;;3617138;39;20058;-89
2021/04/28 19:05:31;;;;;;;12.88;8.93;;;10.40;99.90;;;;;;3624760;39;20047;-89